createdAt,value
2023-05-03T00:01:25.223Z,27.40
2023-05-03T00:06:30.819Z,27.50
2023-05-03T00:11:36.893Z,27.50
2023-05-03T00:16:42.676Z,27.50
2023-05-03T00:21:48.021Z,27.80
2023-05-03T00:26:53.792Z,27.90
2023-05-03T00:31:58.728Z,27.90
2023-05-03T00:37:04.207Z,28.00
2023-05-03T00:42:10.049Z,27.80
2023-05-03T00:47:15.582Z,27.80
2023-05-03T00:52:21.198Z,27.80
2023-05-03T00:57:28.095Z,28.20
2023-05-03T01:02:34.763Z,28.40
2023-05-03T01:08:19.212Z,28.40
2023-05-03T01:13:32.508Z,28.50
2023-05-03T01:18:45.627Z,28.50
2023-05-03T01:24:13.273Z,28.50
2023-05-03T01:29:18.846Z,28.60
2023-05-03T01:34:47.391Z,28.90
2023-05-03T01:40:18.191Z,29.20
2023-05-03T01:45:24.833Z,29.40
2023-05-03T01:50:31.081Z,29.10
2023-05-03T01:55:37.126Z,29.20
2023-05-03T02:00:43.330Z,29.50
2023-05-03T02:05:49.974Z,29.70
2023-05-03T02:10:55.333Z,29.60
2023-05-03T02:16:01.887Z,29.70
2023-05-03T02:21:08.325Z,29.80
2023-05-03T02:26:13.578Z,29.50
2023-05-03T02:31:22.948Z,29.50
2023-05-03T02:36:33.347Z,29.90
2023-05-03T02:41:41.067Z,29.90
2023-05-03T02:46:48.712Z,30.00
2023-05-03T02:51:56.604Z,30.60
2023-05-03T02:57:03.256Z,31.30
2023-05-03T03:08:25.591Z,32.10
2023-05-03T03:13:35.679Z,31.50
2023-05-03T03:18:43.076Z,31.70
2023-05-03T03:23:48.654Z,31.70
2023-05-03T03:28:54.409Z,32.20
2023-05-03T03:34:04.622Z,32.00
2023-05-03T03:39:23.326Z,32.00
2023-05-03T03:44:32.700Z,32.60
2023-05-03T03:49:45.878Z,32.40
2023-05-03T03:54:59.766Z,32.40
2023-05-03T04:00:16.167Z,31.50
2023-05-03T04:10:56.552Z,31.20
2023-05-03T04:16:04.903Z,31.10
2023-05-03T04:21:15.670Z,30.90
2023-05-03T04:26:31.813Z,31.00
2023-05-03T04:31:51.368Z,31.00
2023-05-03T04:36:58.429Z,30.80
2023-05-03T04:42:05.583Z,30.90
2023-05-03T04:47:16.288Z,30.90
2023-05-03T04:52:26.119Z,31.00
2023-05-03T04:57:36.781Z,31.00
2023-05-03T05:02:46.034Z,31.20
2023-05-03T05:07:54.459Z,31.20
2023-05-03T05:13:00.984Z,31.30
2023-05-03T05:18:07.691Z,31.20
2023-05-03T05:23:15.965Z,31.20
2023-05-03T05:28:35.451Z,31.10
2023-05-03T05:33:43.982Z,31.20
2023-05-03T05:38:55.266Z,31.40
2023-05-03T05:44:14.134Z,31.40
2023-05-03T05:49:24.596Z,31.90
2023-05-03T05:54:40.106Z,32.60
2023-05-03T05:59:57.660Z,32.70
2023-05-03T06:05:08.683Z,32.70
2023-05-03T06:10:15.104Z,32.50
2023-05-03T06:15:29.146Z,33.40
2023-05-03T06:20:35.623Z,34.30
2023-05-03T06:25:41.308Z,34.10
2023-05-03T06:30:52.025Z,33.00
2023-05-03T06:36:03.665Z,33.20
2023-05-03T06:41:15.131Z,33.60
2023-05-03T06:46:23.261Z,33.20
2023-05-03T06:51:31.038Z,33.30
2023-05-03T06:56:36.722Z,35.80
2023-05-03T07:01:41.493Z,35.50
2023-05-03T07:06:56.825Z,34.50
2023-05-03T07:12:03.044Z,34.70
2023-05-03T07:17:08.793Z,33.90
2023-05-03T07:22:17.105Z,33.50
2023-05-03T07:27:23.393Z,33.40
2023-05-03T07:32:29.213Z,34.00
2023-05-03T07:37:34.716Z,35.50
2023-05-03T07:42:39.869Z,36.70
2023-05-03T07:47:45.470Z,36.20
2023-05-03T07:52:54.019Z,36.90
2023-05-03T07:58:00.943Z,39.40
2023-05-03T08:03:08.004Z,40.70
2023-05-03T08:08:15.565Z,40.70
2023-05-03T08:13:20.994Z,39.70
2023-05-03T08:18:27.188Z,37.80
2023-05-03T08:23:33.551Z,36.30
2023-05-03T08:28:49.024Z,34.90
2023-05-03T08:33:54.444Z,34.00
2023-05-03T08:38:59.861Z,33.60
2023-05-03T08:44:06.858Z,33.60
2023-05-03T08:49:14.264Z,33.50
2023-05-03T08:54:22.125Z,33.10
2023-05-03T08:59:30.358Z,32.70
2023-05-03T09:04:36.685Z,32.60
2023-05-03T09:10:29.173Z,32.40
2023-05-03T09:15:46.695Z,32.10
2023-05-03T09:21:20.778Z,31.80
2023-05-03T09:26:37.131Z,31.90
2023-05-03T09:32:02.562Z,31.90
2023-05-03T09:37:08.853Z,31.80
2023-05-03T09:42:17.137Z,31.40
2023-05-03T09:47:28.081Z,31.10
2023-05-03T09:52:39.597Z,31.10
2023-05-03T09:57:48.344Z,31.00
2023-05-03T10:02:57.240Z,31.00
2023-05-03T10:08:05.248Z,31.00
2023-05-03T10:13:12.462Z,30.80
2023-05-03T10:18:20.568Z,30.70
2023-05-03T10:23:27.743Z,30.50
2023-05-03T10:28:34.968Z,30.20
2023-05-03T10:33:42.760Z,30.10
2023-05-03T10:38:50.484Z,29.90
2023-05-03T10:43:55.899Z,29.90
2023-05-03T10:49:27.877Z,29.70
2023-05-03T10:54:33.378Z,29.70
2023-05-03T10:59:50.833Z,29.40
2023-05-03T11:05:00.673Z,29.30
2023-05-03T11:10:22.359Z,29.10
2023-05-03T11:15:27.955Z,29.10
2023-05-03T11:20:33.519Z,29.10
2023-05-03T11:25:47.562Z,29.00
2023-05-03T11:30:58.770Z,28.80
2023-05-03T11:36:09.374Z,28.80
2023-05-03T11:41:29.476Z,28.60
2023-05-03T11:46:40.897Z,28.70
2023-05-03T11:51:53.578Z,28.70
2023-05-03T11:57:15.005Z,28.60
2023-05-03T12:02:24.150Z,28.60
2023-05-03T12:07:30.366Z,28.60
2023-05-03T12:12:38.051Z,28.50
2023-05-03T12:17:49.599Z,28.40
2023-05-03T12:22:59.084Z,28.30
2023-05-03T12:33:22.562Z,28.30
2023-05-03T12:38:31.035Z,28.40
2023-05-03T12:43:40.338Z,28.40
2023-05-03T12:48:47.626Z,28.20
2023-05-03T12:53:55.990Z,28.00
2023-05-03T12:59:31.650Z,27.90
2023-05-03T13:09:46.138Z,27.90
2023-05-03T13:15:01.575Z,27.70
2023-05-03T13:20:09.717Z,27.70
2023-05-03T13:25:16.538Z,27.90
2023-05-03T13:30:24.989Z,28.10
2023-05-03T13:35:33.481Z,28.10
2023-05-03T13:40:39.140Z,27.80
2023-05-03T13:45:44.724Z,27.70
2023-05-03T13:50:51.645Z,27.50
2023-05-03T13:55:56.920Z,27.30
2023-05-03T14:01:02.823Z,27.20
2023-05-03T14:06:10.258Z,27.10
2023-05-03T14:11:20.725Z,27.10
2023-05-03T14:21:36.245Z,27.10
2023-05-03T14:26:42.489Z,27.10
2023-05-03T14:31:51.006Z,27.10
2023-05-03T14:36:56.324Z,26.90
2023-05-03T14:42:02.225Z,26.80
2023-05-03T14:47:08.633Z,26.70
2023-05-03T14:52:14.579Z,26.80
2023-05-03T14:57:19.983Z,26.90
2023-05-03T15:02:26.167Z,27.10
2023-05-03T15:07:31.545Z,26.90
2023-05-03T15:12:37.568Z,26.80
2023-05-03T15:17:43.068Z,26.80
2023-05-03T15:22:48.447Z,26.70
2023-05-03T15:27:54.373Z,26.70
2023-05-03T15:33:00.030Z,26.80
2023-05-03T15:38:05.150Z,26.90
2023-05-03T15:43:10.668Z,27.00
2023-05-03T15:48:15.809Z,26.80
2023-05-03T15:53:21.135Z,26.90
2023-05-03T15:58:33.328Z,26.80
2023-05-03T16:03:40.483Z,26.80
2023-05-03T16:08:47.491Z,26.70
2023-05-03T16:13:52.999Z,26.50
2023-05-03T16:18:58.449Z,26.40
2023-05-03T16:24:04.875Z,26.40
2023-05-03T16:29:09.990Z,26.30
2023-05-03T16:34:15.615Z,26.30
2023-05-03T16:39:20.638Z,26.30
2023-05-03T16:44:26.398Z,26.20
2023-05-03T16:49:34.265Z,26.30
2023-05-03T16:54:39.871Z,26.20
2023-05-03T16:59:45.226Z,26.20
2023-05-03T17:04:50.759Z,26.10
2023-05-03T17:09:56.143Z,26.10
2023-05-03T17:15:04.051Z,26.20
2023-05-03T17:20:10.781Z,26.10
2023-05-03T17:25:16.230Z,26.10
2023-05-03T17:30:21.763Z,26.10
2023-05-03T17:35:26.964Z,26.20
2023-05-03T17:40:32.509Z,26.20
2023-05-03T17:45:38.207Z,26.10
2023-05-03T17:50:44.592Z,26.20
2023-05-03T17:55:50.315Z,26.30
2023-05-03T18:00:56.943Z,26.40
2023-05-03T18:06:02.261Z,26.50
2023-05-03T18:11:07.414Z,26.60
2023-05-03T18:16:13.674Z,26.50
2023-05-03T18:21:20.001Z,26.50
2023-05-03T18:26:26.754Z,26.50
2023-05-03T18:31:32.176Z,26.50
2023-05-03T18:36:37.587Z,26.50
2023-05-03T18:41:43.263Z,26.50
2023-05-03T18:46:48.162Z,26.60
2023-05-03T18:51:53.635Z,26.60
2023-05-03T18:57:00.656Z,26.50
2023-05-03T19:02:09.078Z,26.50
2023-05-03T19:07:14.461Z,26.50
2023-05-03T19:12:19.490Z,26.60
2023-05-03T19:17:24.830Z,26.60
2023-05-03T19:22:29.964Z,26.60
2023-05-03T19:27:35.225Z,26.70
2023-05-03T19:32:40.449Z,27.00
2023-05-03T19:37:46.013Z,27.10
2023-05-03T19:42:51.934Z,27.20
2023-05-03T19:47:57.606Z,27.20
2023-05-03T19:53:03.179Z,27.10
2023-05-03T19:58:08.791Z,27.00
2023-05-03T20:03:14.230Z,27.00
2023-05-03T20:08:19.669Z,27.00
2023-05-03T20:13:27.153Z,27.00
2023-05-03T20:18:32.373Z,27.10
2023-05-03T20:23:37.735Z,27.00
2023-05-03T20:28:43.278Z,27.00
2023-05-03T20:33:48.812Z,27.00
2023-05-03T20:38:55.548Z,27.20
2023-05-03T20:44:00.993Z,26.90
2023-05-03T20:49:08.310Z,27.00
2023-05-03T20:54:16.048Z,26.90
2023-05-03T20:59:21.330Z,26.90
2023-05-03T21:04:29.134Z,26.80
2023-05-03T21:09:35.028Z,26.80
2023-05-03T21:14:40.446Z,26.80
2023-05-03T21:19:45.982Z,26.70
2023-05-03T21:24:51.414Z,26.80
2023-05-03T21:29:57.255Z,26.80
2023-05-03T21:35:02.575Z,26.80
2023-05-03T21:40:09.207Z,26.80
2023-05-03T21:45:15.695Z,26.90
2023-05-03T21:50:21.044Z,27.20
2023-05-03T21:55:26.387Z,27.30
2023-05-03T22:00:33.024Z,27.40
2023-05-03T22:05:40.990Z,27.30
2023-05-03T22:10:47.817Z,27.40
2023-05-03T22:15:53.182Z,27.40
2023-05-03T22:20:58.597Z,27.30
2023-05-03T22:26:04.124Z,27.20
2023-05-03T22:31:09.505Z,27.10
2023-05-03T22:36:15.972Z,27.20
2023-05-03T22:41:21.009Z,27.20
2023-05-03T22:46:26.496Z,27.10
2023-05-03T22:51:32.650Z,27.10
2023-05-03T22:56:38.017Z,27.00
2023-05-03T23:01:45.329Z,27.10
2023-05-03T23:06:50.742Z,27.20
2023-05-03T23:11:57.990Z,27.30
2023-05-03T23:17:03.574Z,27.30
2023-05-03T23:22:08.943Z,27.30
2023-05-03T23:27:14.606Z,27.30
2023-05-03T23:32:20.260Z,27.40
2023-05-03T23:37:25.409Z,27.70
2023-05-03T23:42:30.802Z,28.00
2023-05-03T23:47:36.658Z,28.20
2023-05-03T23:52:43.262Z,28.10
2023-05-03T23:57:48.662Z,28.20
